Time;durP1;ratioP1;P1;durP2;ratioP2;P2;SDS_P1;SDS_P2;PMS_P1;PMS_P2;Temp;Humidity;BMP_temperature;BMP_pressure;BME280_temperature;BME280_humidity;BME280_pressure;Samples;Min_cycle;Max_cycle;Signal;HPM_P1;HPM_P2
2024/02/12 00:00:49;;;;;;;20.58;15.52;;;10.90;92.30;;;;;;5053407;28;20037;-80
2024/02/12 00:03:17;;;;;;;21.05;15.98;;;10.80;92.40;;;;;;5052389;28;20045;-80
2024/02/12 00:05:46;;;;;;;21.55;15.48;;;10.80;92.60;;;;;;5054502;28;20111;-79
2024/02/12 00:08:15;;;;;;;18.50;14.73;;;10.80;92.50;;;;;;5056592;28;20060;-80
2024/02/12 00:10:41;;;;;;;19.85;14.50;;;10.80;92.80;;;;;;5056266;28;20025;-79
2024/02/12 00:13:07;;;;;;;16.65;13.43;;;10.90;92.70;;;;;;5038663;28;20029;-79
2024/02/12 00:15:33;;;;;;;20.10;14.30;;;10.90;92.60;;;;;;5056416;28;20025;-79
2024/02/12 00:17:59;;;;;;;17.63;13.07;;;10.90;92.50;;;;;;5056163;28;20033;-80
2024/02/12 00:20:28;;;;;;;16.00;12.10;;;10.90;92.60;;;;;;5056524;28;20425;-80
2024/02/12 00:22:55;;;;;;;14.65;10.90;;;10.80;92.50;;;;;;5056924;28;20127;-79
2024/02/12 00:25:21;;;;;;;15.48;11.15;;;10.80;92.60;;;;;;5057714;28;20033;-80
2024/02/12 00:27:47;;;;;;;15.32;11.40;;;10.90;92.60;;;;;;5058249;28;20116;-79
2024/02/12 00:30:14;;;;;;;17.17;10.52;;;10.80;92.50;;;;;;5057088;28;20044;-79
2024/02/12 00:32:43;;;;;;;16.33;10.90;;;10.80;92.50;;;;;;5056693;28;20479;-80
2024/02/12 00:35:10;;;;;;;13.80;10.50;;;10.90;92.50;;;;;;5056037;28;20036;-78
2024/02/12 00:37:39;;;;;;;16.77;10.75;;;10.80;92.30;;;;;;5055752;28;20037;-79
2024/02/12 00:40:08;;;;;;;13.43;10.63;;;10.80;92.30;;;;;;5055422;28;20461;-80
2024/02/12 00:42:35;;;;;;;12.93;9.70;;;10.80;92.40;;;;;;5055585;28;20040;-80
2024/02/12 00:45:10;;;;;;;12.32;9.55;;;10.90;92.40;;;;;;5055724;28;20348;-79
2024/02/12 00:47:37;;;;;;;16.13;11.15;;;11.00;92.40;;;;;;5056259;28;20033;-79
2024/02/12 00:50:05;;;;;;;13.50;9.68;;;11.00;92.40;;;;;;5059920;28;20112;-79
2024/02/12 00:52:33;;;;;;;15.18;10.27;;;11.00;92.20;;;;;;5058966;28;20029;-81
2024/02/12 00:54:59;;;;;;;12.80;9.65;;;11.00;92.30;;;;;;5057596;28;20037;-81
2024/02/12 00:57:25;;;;;;;13.38;9.27;;;11.00;92.30;;;;;;5055432;28;20029;-80
2024/02/12 00:59:51;;;;;;;15.32;9.68;;;11.00;92.30;;;;;;5055143;28;20140;-78
2024/02/12 01:02:17;;;;;;;13.57;9.90;;;11.00;92.20;;;;;;5055375;28;20029;-80
2024/02/12 01:04:43;;;;;;;13.38;9.43;;;11.00;92.30;;;;;;5055372;28;20040;-79
2024/02/12 01:07:09;;;;;;;13.45;10.07;;;11.00;92.40;;;;;;5055439;28;20083;-79
2024/02/12 01:09:35;;;;;;;14.95;10.13;;;11.00;92.50;;;;;;5055267;28;20076;-79
2024/02/12 01:12:00;;;;;;;14.10;10.20;;;11.00;92.40;;;;;;5055273;28;20053;-78
2024/02/12 01:14:28;;;;;;;15.68;9.75;;;10.90;92.30;;;;;;5054818;28;20521;-78
2024/02/12 01:16:55;;;;;;;15.18;9.80;;;10.90;92.30;;;;;;5053588;28;20390;-79
2024/02/12 01:19:21;;;;;;;13.43;9.88;;;10.90;92.20;;;;;;5054842;28;20033;-78
2024/02/12 01:21:47;;;;;;;16.25;9.07;;;10.90;92.20;;;;;;5054901;28;20037;-78
2024/02/12 01:24:14;;;;;;;12.60;8.90;;;10.90;92.30;;;;;;5054654;28;20049;-79
2024/02/12 01:26:41;;;;;;;13.23;9.48;;;10.80;92.40;;;;;;5036913;28;20036;-78
2024/02/12 01:29:07;;;;;;;15.43;9.55;;;10.70;92.30;;;;;;5054926;28;20029;-79
2024/02/12 01:31:34;;;;;;;13.32;9.48;;;10.70;92.30;;;;;;5038294;28;20037;-78
2024/02/12 01:34:00;;;;;;;14.40;10.05;;;10.60;92.30;;;;;;5057492;28;20032;-78
2024/02/12 01:36:26;;;;;;;12.20;9.55;;;10.50;92.30;;;;;;5055346;28;20034;-78
2024/02/12 01:38:51;;;;;;;13.70;9.30;;;10.50;92.30;;;;;;5054610;28;20029;-80
2024/02/12 01:41:18;;;;;;;13.60;9.93;;;10.40;92.20;;;;;;5054575;28;20065;-79
2024/02/12 01:43:44;;;;;;;13.85;10.10;;;10.40;92.30;;;;;;5054345;28;20497;-80
2024/02/12 01:46:09;;;;;;;12.90;9.50;;;10.30;92.40;;;;;;5054375;28;20124;-79
2024/02/12 01:48:36;;;;;;;14.52;10.02;;;10.30;92.40;;;;;;5054164;28;20029;-79
2024/02/12 01:51:07;;;;;;;14.65;9.60;;;10.30;92.40;;;;;;5054056;28;20033;-79
2024/02/12 01:53:37;;;;;;;14.80;9.65;;;10.30;92.50;;;;;;5054220;28;20036;-80
2024/02/12 01:56:06;;;;;;;12.18;9.68;;;10.30;92.50;;;;;;5054515;28;20032;-79
2024/02/12 01:58:33;;;;;;;11.77;9.15;;;10.30;92.40;;;;;;5053981;28;20052;-78
2024/02/12 02:00:59;;;;;;;14.65;9.32;;;10.40;92.40;;;;;;5054150;28;20600;-78
2024/02/12 02:03:27;;;;;;;12.40;9.02;;;10.40;92.30;;;;;;5054028;28;20124;-79
2024/02/12 02:05:53;;;;;;;13.35;8.68;;;10.40;92.30;;;;;;5036144;28;20043;-77
2024/02/12 02:08:20;;;;;;;13.20;9.00;;;10.40;92.30;;;;;;5054129;28;20043;-77
2024/02/12 02:10:48;;;;;;;12.52;8.90;;;10.30;92.30;;;;;;5054794;28;20436;-78
2024/02/12 02:13:16;;;;;;;11.82;8.98;;;10.40;92.00;;;;;;5056410;28;20534;-78
2024/02/12 02:15:42;;;;;;;12.55;8.88;;;10.40;92.30;;;;;;5053812;28;20025;-79
2024/02/12 02:18:08;;;;;;;13.82;8.68;;;10.40;92.30;;;;;;5053756;28;20405;-80
2024/02/12 02:20:36;;;;;;;15.07;9.27;;;10.40;92.20;;;;;;5053737;28;20075;-78
2024/02/12 02:23:04;;;;;;;11.55;8.93;;;10.40;92.20;;;;;;5053750;28;20041;-78
2024/02/12 02:25:29;;;;;;;13.48;8.88;;;10.40;92.20;;;;;;5053898;28;20037;-78
2024/02/12 02:27:55;;;;;;;10.98;8.25;;;10.50;92.20;;;;;;5053085;28;20029;-79
2024/02/12 02:30:21;;;;;;;12.13;8.55;;;10.50;92.10;;;;;;5053806;28;20457;-79
2024/02/12 02:32:48;;;;;;;11.70;8.40;;;10.50;92.20;;;;;;5053442;28;20033;-77
2024/02/12 02:35:14;;;;;;;11.38;7.55;;;10.50;92.10;;;;;;5053371;28;20517;-78
2024/02/12 02:37:39;;;;;;;11.60;7.80;;;10.40;92.00;;;;;;5053367;28;20029;-78
2024/02/12 02:40:06;;;;;;;12.65;7.60;;;10.30;91.90;;;;;;5052979;28;20037;-77
2024/02/12 02:42:32;;;;;;;10.18;7.50;;;10.20;92.00;;;;;;5053204;28;20025;-78
2024/02/12 02:44:58;;;;;;;11.95;7.68;;;10.20;92.00;;;;;;5053355;28;20520;-77
2024/02/12 02:47:24;;;;;;;10.63;7.13;;;10.20;91.90;;;;;;5053382;28;20576;-79
2024/02/12 02:49:49;;;;;;;10.93;6.63;;;10.10;91.80;;;;;;5053094;28;20028;-78
2024/02/12 02:52:17;;;;;;;9.00;6.25;;;10.00;91.80;;;;;;5035042;28;20520;-77
2024/02/12 02:54:44;;;;;;;8.63;6.53;;;10.00;91.80;;;;;;5053223;28;20029;-78
2024/02/12 02:57:11;;;;;;;9.18;5.85;;;10.00;91.80;;;;;;5053116;28;20494;-78
2024/02/12 02:59:38;;;;;;;7.90;5.43;;;10.00;91.60;;;;;;5052831;28;20118;-78
2024/02/12 03:02:06;;;;;;;7.90;6.00;;;10.00;91.80;;;;;;5053205;28;20060;-78
2024/02/12 03:04:35;;;;;;;8.57;5.65;;;10.10;91.70;;;;;;5052727;28;20057;-77
2024/02/12 03:07:01;;;;;;;8.75;5.45;;;10.20;91.60;;;;;;5052810;28;20037;-79
2024/02/12 03:09:27;;;;;;;7.75;5.50;;;10.20;91.60;;;;;;5053113;28;20037;-79
2024/02/12 03:11:54;;;;;;;7.82;5.35;;;10.30;91.50;;;;;;5052724;28;20444;-78
2024/02/12 03:14:21;;;;;;;8.63;5.80;;;10.30;91.40;;;;;;5052638;28;20029;-77
2024/02/12 03:17:00;;;;;;;7.90;4.57;;;10.40;91.40;;;;;;5052558;28;20050;-78
2024/02/12 03:19:26;;;;;;;8.68;4.60;;;10.50;91.30;;;;;;5052488;28;20083;-77
2024/02/12 03:21:52;;;;;;;8.55;4.82;;;10.50;91.20;;;;;;5052722;28;20037;-78
2024/02/12 03:24:21;;;;;;;7.75;5.00;;;10.60;91.20;;;;;;5052454;28;20130;-78
2024/02/12 03:26:48;;;;;;;9.27;5.15;;;10.60;91.40;;;;;;5052754;28;20025;-79
2024/02/12 03:29:14;;;;;;;8.40;4.72;;;10.50;91.20;;;;;;5052513;28;20041;-78
2024/02/12 03:31:40;;;;;;;7.22;5.00;;;10.50;91.20;;;;;;5034597;28;20067;-78
2024/02/12 03:34:07;;;;;;;8.85;5.20;;;10.50;91.10;;;;;;5052372;28;20375;-78
2024/02/12 03:36:32;;;;;;;7.82;5.32;;;10.40;91.10;;;;;;5052483;28;20543;-77
2024/02/12 03:38:59;;;;;;;7.32;5.00;;;10.40;91.20;;;;;;5052277;28;20124;-80
2024/02/12 03:41:25;;;;;;;7.85;5.10;;;10.40;91.30;;;;;;5052337;28;20039;-78
2024/02/12 03:43:55;;;;;;;7.65;5.32;;;10.30;91.10;;;;;;5052634;28;20044;-79
2024/02/12 03:46:20;;;;;;;8.10;5.45;;;10.30;91.60;;;;;;5053783;28;20102;-78
2024/02/12 03:59:56;;;;;;;;;;;10.10;91.20;;;;;;5052726;28;20064;-78
2024/02/12 04:02:22;;;;;;;12.32;6.25;;;10.10;91.70;;;;;;5052506;28;20444;-79
2024/02/12 04:04:49;;;;;;;6.82;4.40;;;10.20;91.50;;;;;;5034449;28;20455;-79
2024/02/12 04:07:15;;;;;;;7.85;4.82;;;10.20;91.10;;;;;;5052511;28;20113;-78
2024/02/12 04:09:42;;;;;;;8.77;5.03;;;10.20;91.20;;;;;;5052439;28;20115;-79
2024/02/12 04:12:12;;;;;;;6.32;4.10;;;10.20;91.20;;;;;;5052101;28;20380;-80
2024/02/12 04:14:40;;;;;;;9.95;4.70;;;10.30;91.20;;;;;;5052389;28;20497;-79
2024/02/12 04:17:10;;;;;;;6.85;4.78;;;10.30;91.20;;;;;;5034118;28;20090;-79
2024/02/12 04:19:38;;;;;;;6.97;4.78;;;10.40;91.50;;;;;;5034147;28;20104;-79
2024/02/12 04:22:09;;;;;;;7.80;4.65;;;10.40;91.00;;;;;;5051909;28;20131;-78
2024/02/12 04:24:38;;;;;;;7.70;5.10;;;10.40;91.10;;;;;;5051848;28;20079;-78
2024/02/12 04:27:04;;;;;;;10.40;4.45;;;10.40;91.00;;;;;;5051678;28;20042;-80
2024/02/12 04:29:32;;;;;;;9.70;4.55;;;10.40;91.00;;;;;;5034104;28;20044;-79
2024/02/12 04:31:58;;;;;;;7.65;4.50;;;10.40;91.00;;;;;;5055162;28;20040;-80
2024/02/12 04:34:24;;;;;;;8.55;4.63;;;10.50;91.10;;;;;;5054296;28;20037;-78
2024/02/12 04:36:55;;;;;;;8.68;4.78;;;10.40;91.00;;;;;;5052300;28;20048;-77
2024/02/12 04:39:21;;;;;;;6.55;4.28;;;10.40;91.00;;;;;;5034012;28;20106;-78
2024/02/12 04:41:51;;;;;;;5.97;4.30;;;10.40;90.90;;;;;;5052044;28;20479;-80
2024/02/12 04:44:17;;;;;;;8.05;4.53;;;10.40;91.00;;;;;;5051771;28;20065;-78
2024/02/12 04:46:42;;;;;;;9.10;4.40;;;10.40;91.00;;;;;;5052405;28;20033;-78
2024/02/12 04:49:09;;;;;;;8.07;4.60;;;10.40;91.20;;;;;;5051965;28;20071;-78
2024/02/12 04:51:38;;;;;;;6.25;3.90;;;10.50;91.20;;;;;;5053812;28;20025;-78
2024/02/12 04:54:04;;;;;;;10.07;4.78;;;10.50;90.90;;;;;;5055072;28;20041;-79
2024/02/12 04:56:30;;;;;;;8.70;4.65;;;10.50;91.00;;;;;;5038285;28;20508;-79
2024/02/12 22:59:56;;;;;;;16.45;8.05;;;12.70;84.10;;;;;;5058242;22;20139;-74
2024/02/12 23:02:22;;;;;;;14.20;7.60;;;12.60;84.40;;;;;;5052100;28;20490;-73
2024/02/12 23:04:50;;;;;;;14.60;7.15;;;12.60;84.30;;;;;;5034694;28;20033;-73
2024/02/12 23:07:15;;;;;;;14.00;6.90;;;12.60;84.50;;;;;;5053731;28;20036;-73
2024/02/12 23:09:41;;;;;;;21.48;8.45;;;12.60;84.50;;;;;;5054329;28;20487;-73
2024/02/12 23:12:07;;;;;;;15.25;7.57;;;12.60;84.40;;;;;;5055467;28;20504;-73
2024/02/12 23:14:33;;;;;;;15.63;7.78;;;12.60;84.20;;;;;;5054968;28;20371;-72
2024/02/12 23:16:58;;;;;;;13.85;7.25;;;12.50;84.00;;;;;;5053538;28;20029;-73
2024/02/12 23:19:25;;;;;;;13.68;7.38;;;12.50;84.40;;;;;;5053682;28;20154;-73
2024/02/12 23:21:51;;;;;;;13.23;7.63;;;12.50;84.30;;;;;;5053399;28;20040;-72
2024/02/12 23:24:18;;;;;;;14.07;7.68;;;12.50;84.50;;;;;;5035222;28;20073;-72
2024/02/12 23:26:47;;;;;;;14.77;8.13;;;12.40;84.50;;;;;;5053232;28;20061;-73
2024/02/12 23:29:13;;;;;;;13.63;7.30;;;12.40;84.90;;;;;;5052935;28;20037;-72
2024/02/12 23:31:39;;;;;;;15.48;7.97;;;12.40;85.30;;;;;;5052997;28;20086;-72
2024/02/12 23:34:05;;;;;;;13.77;7.82;;;12.30;84.70;;;;;;5052851;28;20116;-71
2024/02/12 23:36:31;;;;;;;15.02;8.30;;;12.30;85.10;;;;;;5053017;28;20044;-72
2024/02/12 23:38:56;;;;;;;15.23;7.60;;;12.30;85.30;;;;;;5052722;28;20037;-72
2024/02/12 23:41:22;;;;;;;14.68;8.15;;;12.20;85.10;;;;;;5052668;28;20040;-72
2024/02/12 23:43:49;;;;;;;12.70;7.85;;;12.20;85.30;;;;;;5052195;28;20072;-71
2024/02/12 23:46:15;;;;;;;13.30;7.65;;;12.20;85.40;;;;;;5053786;28;20033;-72
2024/02/12 23:48:41;;;;;;;14.38;8.20;;;12.20;85.50;;;;;;5053256;28;20394;-72
2024/02/12 23:51:09;;;;;;;15.88;7.72;;;12.10;85.60;;;;;;5053608;28;20110;-72
2024/02/12 23:53:35;;;;;;;14.07;8.10;;;12.10;85.80;;;;;;5056965;28;20034;-72
2024/02/12 23:56:01;;;;;;;14.00;8.65;;;12.10;85.90;;;;;;5059602;28;20129;-71
2024/02/12 23:58:29;;;;;;;16.13;8.40;;;12.00;86.10;;;;;;5062313;28;20052;-72
